Perry, New York
Current Conditions -  °F | °C
As of 2:54 PM on Friday 28 Nov 2014 (Local Time) from KDSV Reporting Station
Overcast Overcast  
Wind Chill: -6°   Ceiling: 3700
Heat Index: -3°   Visibility: 10mi
Dew Point: -9°   Wind: 6mph
Humidity: 61%   Direction: 320°NW
Pressure: 30.21"   Gusts: NA
Location:  42.72°N, 78.01°W
Report Text: KDSV 281954Z AUTO 32005KT 10SM BKN037 OVC044 M03/M09 A3021 RMK AO2 SNB12E25 SLP249 P0000 T10281094
Loading
Personal Weather Stations






























Interactive Weather Map New forecast layout! Learn more

10-Day Weather Forecast

Advertisements
Track Severe Weather on mobile